FFA weather

First Flight Airport
Kill Devil Hills, North Carolina, United States

Public forecast

Using degrees Fahrenheit for public forecast. Weather courtesy of forecast.io.

METAR (pilot weather report)

Retrieved 2019/04/20 09:40 UTC (10 minutes ago):

KFFA 200940Z AUTO 20007KT 170V240 4SM RA SCT013 BKN048 OVC110 19/19 A2964 RMK AO2 P0001 T01940194

TAF (pilot weather forecast)

Closest forecast is Elizabeth City Regional Airport & Coast Guard Air Station, 28.4 nm (52.6 km) WNW. Retrieved 2019/04/20 10:03 UTC (0 seconds ago):

TAF KECG 200959Z 2010/2106 18007KT P6SM RA SCT060 BKN070 OVC110 FM201300 20013G20KT P6SM BKN100 FM202000 18013G21KT P6SM BKN080